Time;durP1;ratioP1;P1;durP2;ratioP2;P2;SDS_P1;SDS_P2;PMS_P1;PMS_P2;Temp;Humidity;BMP_temperature;BMP_pressure;BME280_temperature;BME280_humidity;BME280_pressure;Samples;Min_cycle;Max_cycle;Signal;HPM_P1;HPM_P2
2024/03/18 00:02:07;;;;;;;11.63;8.73;;;13.80;99.90;;;;;;5030448;28;20033;-76
2024/03/18 00:04:33;;;;;;;9.63;7.72;;;13.80;99.90;;;;;;5032549;28;20397;-76
2024/03/18 00:06:59;;;;;;;13.20;9.57;;;13.80;99.90;;;;;;5033092;28;20037;-75
2024/03/18 00:09:24;;;;;;;9.65;7.78;;;13.90;99.90;;;;;;5032263;28;20063;-76
2024/03/18 00:11:50;;;;;;;10.80;8.35;;;13.80;99.90;;;;;;5031829;28;20426;-76
2024/03/18 00:14:16;;;;;;;11.18;8.30;;;13.80;99.90;;;;;;5032830;28;20470;-77
2024/03/18 00:16:41;;;;;;;11.85;8.80;;;13.80;99.90;;;;;;5032937;28;20091;-77
2024/03/18 00:19:07;;;;;;;9.68;8.68;;;13.90;99.90;;;;;;5039030;28;20049;-74
2024/03/18 00:21:33;;;;;;;10.93;9.00;;;13.80;99.90;;;;;;5032583;28;20037;-74
2024/03/18 00:23:58;;;;;;;10.02;8.20;;;13.80;99.90;;;;;;5032144;28;20377;-75
2024/03/18 00:26:24;;;;;;;10.68;8.27;;;13.80;99.90;;;;;;5031774;28;20029;-74
2024/03/18 00:28:50;;;;;;;11.77;8.70;;;13.80;99.90;;;;;;5031643;28;20033;-79
2024/03/18 00:31:15;;;;;;;11.60;9.88;;;13.70;99.90;;;;;;5028521;28;20021;-75
2024/03/18 00:33:41;;;;;;;9.85;7.82;;;13.70;99.90;;;;;;5032252;28;20458;-75
2024/03/18 00:36:07;;;;;;;14.15;9.50;;;13.80;99.90;;;;;;5032591;28;20232;-79
2024/03/18 00:38:33;;;;;;;12.75;8.48;;;13.80;99.90;;;;;;5032385;28;20021;-76
2024/03/18 00:43:43;;;;;;;13.38;9.52;;;13.90;99.90;;;;;;5022079;28;20095;-78
2024/03/18 00:46:08;;;;;;;10.15;8.18;;;13.80;99.90;;;;;;5032294;28;20034;-74
2024/03/18 00:48:34;;;;;;;10.70;8.93;;;13.90;99.90;;;;;;5040071;28;20041;-74
2024/03/18 00:51:00;;;;;;;12.35;9.23;;;13.80;99.90;;;;;;5032074;28;20107;-74
2024/03/18 00:53:26;;;;;;;14.25;9.75;;;13.90;99.90;;;;;;5031992;28;20026;-79
2024/03/18 00:55:52;;;;;;;9.82;8.60;;;13.90;99.90;;;;;;5032237;28;20037;-74
2024/03/18 00:58:18;;;;;;;11.05;9.38;;;13.90;99.90;;;;;;5032529;28;20033;-74
2024/03/18 01:00:44;;;;;;;11.45;10.27;;;13.80;99.90;;;;;;5032042;28;20021;-75
2024/03/18 01:03:10;;;;;;;11.10;9.80;;;13.80;99.90;;;;;;5032309;28;20033;-75
2024/03/18 01:05:36;;;;;;;19.15;10.05;;;13.80;99.90;;;;;;5031910;28;20025;-78
2024/03/18 01:08:02;;;;;;;14.50;9.55;;;13.80;99.90;;;;;;5031421;28;20040;-76
2024/03/18 01:10:28;;;;;;;12.45;8.88;;;13.80;99.90;;;;;;5032202;28;20460;-76
2024/03/18 01:12:56;;;;;;;12.32;9.93;;;13.80;99.90;;;;;;5030268;28;20024;-76
2024/03/18 01:15:22;;;;;;;10.55;8.65;;;13.80;99.90;;;;;;5030427;28;20029;-77
2024/03/18 01:17:48;;;;;;;9.98;8.30;;;13.80;99.90;;;;;;5031782;28;20033;-75
2024/03/18 01:20:16;;;;;;;11.45;9.35;;;13.80;99.90;;;;;;5036803;28;20040;-77
2024/03/18 01:22:42;;;;;;;12.45;9.02;;;13.80;99.90;;;;;;5031428;28;20025;-78
2024/03/18 01:25:13;;;;;;;13.75;10.43;;;13.80;99.90;;;;;;5030993;28;20112;-74
2024/03/18 01:27:43;;;;;;;15.20;9.40;;;13.70;99.90;;;;;;5030515;28;20047;-74
2024/03/18 01:30:13;;;;;;;14.55;9.98;;;13.80;99.90;;;;;;5034057;28;20116;-75
2024/03/18 01:32:39;;;;;;;12.13;9.68;;;13.80;99.90;;;;;;5029127;28;20030;-77
2024/03/18 01:35:12;;;;;;;14.02;9.50;;;13.80;99.90;;;;;;5031589;28;20029;-74
2024/03/18 01:37:38;;;;;;;11.05;8.77;;;13.80;99.90;;;;;;5031225;28;20040;-73
2024/03/18 01:40:07;;;;;;;11.77;9.25;;;13.80;99.90;;;;;;5029936;28;20391;-74
2024/03/18 01:42:34;;;;;;;13.25;8.85;;;13.70;99.90;;;;;;5031570;28;20025;-75
2024/03/18 01:45:00;;;;;;;13.82;9.63;;;13.70;99.90;;;;;;5020382;28;20032;-73
2024/03/18 01:47:26;;;;;;;11.77;9.50;;;13.70;99.90;;;;;;5029992;28;20034;-74
2024/03/18 01:49:53;;;;;;;12.40;8.68;;;13.70;99.90;;;;;;5038995;28;20538;-73
2024/03/18 01:52:20;;;;;;;18.98;9.20;;;13.70;99.90;;;;;;5031519;28;20035;-74
2024/03/18 01:54:47;;;;;;;16.13;9.40;;;13.70;99.90;;;;;;5030911;28;20025;-73
2024/03/18 01:57:13;;;;;;;11.80;8.98;;;13.70;99.90;;;;;;5031384;28;20028;-80
2024/03/18 01:59:39;;;;;;;9.82;8.82;;;13.70;99.90;;;;;;5031152;28;20100;-79
2024/03/18 02:02:05;;;;;;;11.95;9.43;;;13.70;99.90;;;;;;5031588;28;20443;-76
2024/03/18 02:04:31;;;;;;;16.13;8.77;;;13.70;99.90;;;;;;5031080;28;20087;-78
2024/03/18 02:06:56;;;;;;;12.27;8.70;;;13.60;99.90;;;;;;5031103;28;20101;-78
2024/03/18 02:09:25;;;;;;;12.43;8.60;;;13.60;99.90;;;;;;5028133;28;20120;-76
2024/03/18 02:11:51;;;;;;;10.85;8.52;;;13.60;99.90;;;;;;5031045;28;20025;-77
2024/03/18 02:14:17;;;;;;;10.48;8.88;;;13.60;99.90;;;;;;5025236;28;20124;-78
2024/03/18 02:16:45;;;;;;;12.00;8.60;;;13.50;99.90;;;;;;5031058;28;20025;-75
2024/03/18 02:19:11;;;;;;;10.75;8.55;;;13.50;99.90;;;;;;5029733;28;20040;-80
2024/03/18 02:21:37;;;;;;;8.40;7.55;;;13.50;99.90;;;;;;5029672;28;20045;-76
2024/03/18 02:24:06;;;;;;;7.32;6.43;;;13.50;99.90;;;;;;5030654;28;20029;-79
2024/03/18 02:26:33;;;;;;;7.05;6.45;;;13.50;99.90;;;;;;5031827;28;20022;-75
2024/03/18 02:28:59;;;;;;;10.90;6.32;;;13.50;99.90;;;;;;5034792;28;20163;-78
2024/03/18 02:31:24;;;;;;;6.93;6.28;;;13.40;99.90;;;;;;5032599;28;20101;-76
2024/03/18 02:33:51;;;;;;;8.90;6.57;;;13.30;99.90;;;;;;5026986;28;20040;-76
2024/03/18 02:36:18;;;;;;;7.88;6.75;;;13.30;99.90;;;;;;5033832;28;20022;-78
2024/03/18 02:38:44;;;;;;;10.32;8.00;;;13.30;99.90;;;;;;5034344;28;20104;-78
2024/03/18 02:41:11;;;;;;;11.48;6.82;;;13.30;99.90;;;;;;5034680;28;20034;-77
2024/03/18 02:43:36;;;;;;;9.85;6.78;;;13.20;99.90;;;;;;5032900;28;20116;-78
2024/03/18 02:46:04;;;;;;;12.15;6.80;;;13.10;99.90;;;;;;5033800;28;20117;-75
2024/03/18 02:48:30;;;;;;;8.93;7.63;;;13.20;99.90;;;;;;5033991;28;20036;-76
2024/03/18 02:50:57;;;;;;;10.95;8.52;;;13.10;99.90;;;;;;5034146;28;20040;-78
2024/03/18 02:53:23;;;;;;;9.82;7.65;;;13.10;99.90;;;;;;5035041;28;20112;-75
2024/03/18 02:55:49;;;;;;;9.20;6.43;;;13.10;99.90;;;;;;5034677;28;20033;-74
2024/03/18 02:58:17;;;;;;;8.30;6.07;;;13.10;99.90;;;;;;5035169;28;20021;-75
2024/03/18 03:00:43;;;;;;;7.47;6.20;;;13.10;99.90;;;;;;5033538;28;20371;-74
2024/03/18 03:03:08;;;;;;;12.32;6.55;;;13.10;99.90;;;;;;5034826;28;20109;-74
2024/03/18 03:05:34;;;;;;;9.10;7.57;;;13.00;99.90;;;;;;5034415;28;20033;-80
2024/03/18 03:08:00;;;;;;;12.90;8.88;;;12.90;99.90;;;;;;5034583;28;20034;-78
2024/03/18 03:10:26;;;;;;;9.02;7.78;;;12.90;99.90;;;;;;5034210;28;20040;-77
2024/03/18 03:12:52;;;;;;;12.80;9.20;;;12.90;99.90;;;;;;5034907;28;20025;-78
2024/03/18 03:15:18;;;;;;;10.25;8.82;;;12.90;99.90;;;;;;5034476;28;20033;-75
2024/03/18 03:17:43;;;;;;;10.02;8.20;;;12.90;99.90;;;;;;5034610;28;20044;-77
2024/03/18 03:20:11;;;;;;;12.18;9.10;;;12.90;99.90;;;;;;5033606;28;20428;-75
2024/03/18 03:22:37;;;;;;;12.57;7.82;;;12.90;99.90;;;;;;5033478;28;20025;-75
2024/03/18 03:25:05;;;;;;;13.35;9.93;;;13.00;99.90;;;;;;5032935;28;20116;-74
2024/03/18 03:27:32;;;;;;;8.90;7.93;;;13.00;99.90;;;;;;5033983;28;20025;-75
2024/03/18 03:29:58;;;;;;;9.65;8.65;;;13.00;99.90;;;;;;5034017;28;20041;-78
2024/03/18 03:32:24;;;;;;;7.95;7.15;;;13.00;99.90;;;;;;5034442;28;20064;-75
2024/03/18 03:34:50;;;;;;;7.63;6.22;;;13.00;99.90;;;;;;5034015;28;20034;-75
2024/03/18 03:37:16;;;;;;;15.35;9.10;;;13.00;99.90;;;;;;5033500;28;20022;-75
2024/03/18 03:39:41;;;;;;;10.75;7.38;;;13.00;99.90;;;;;;5033003;28;20458;-74
2024/03/18 03:42:07;;;;;;;9.13;8.13;;;13.00;99.90;;;;;;5033599;28;20068;-77
2024/03/18 03:44:33;;;;;;;8.95;7.60;;;13.00;99.90;;;;;;5034400;28;20405;-77
2024/03/18 03:46:59;;;;;;;9.02;7.15;;;13.00;99.90;;;;;;5031946;28;20536;-77
2024/03/18 03:49:25;;;;;;;13.30;8.50;;;13.00;99.90;;;;;;5033931;28;20041;-74
2024/03/18 03:51:51;;;;;;;11.73;8.55;;;13.00;99.90;;;;;;5032620;28;20033;-75
2024/03/18 03:54:17;;;;;;;10.95;8.48;;;13.00;99.90;;;;;;5034080;28;20375;-76
2024/03/18 03:56:43;;;;;;;14.93;9.82;;;13.00;99.90;;;;;;5033568;28;20021;-77
2024/03/18 03:59:08;;;;;;;12.63;9.95;;;13.00;99.90;;;;;;5034152;28;20032;-76
2024/03/18 04:01:34;;;;;;;12.70;10.02;;;12.90;99.90;;;;;;5033457;28;20099;-74
2024/03/18 04:04:00;;;;;;;11.48;9.13;;;13.00;99.90;;;;;;5033830;28;20029;-73
2024/03/18 04:06:25;;;;;;;14.65;9.85;;;13.00;99.90;;;;;;5033521;28;20025;-76
2024/03/18 04:08:51;;;;;;;14.70;10.02;;;13.00;99.90;;;;;;5032286;28;20038;-75
2024/03/18 04:11:17;;;;;;;14.43;9.60;;;13.00;99.90;;;;;;5033584;28;20421;-79
2024/03/18 04:13:43;;;;;;;14.18;10.00;;;13.00;99.90;;;;;;5033091;28;20151;-75
2024/03/18 04:16:14;;;;;;;16.95;10.57;;;13.00;99.90;;;;;;5033228;28;20110;-73
2024/03/18 04:18:42;;;;;;;21.13;11.48;;;13.10;99.90;;;;;;5040149;28;20029;-78
2024/03/18 04:21:09;;;;;;;17.05;10.57;;;13.10;99.90;;;;;;5033288;28;20041;-76
2024/03/18 04:23:34;;;;;;;12.98;9.55;;;13.10;99.90;;;;;;5033356;28;20024;-75
2024/03/18 04:26:06;;;;;;;14.15;10.23;;;13.10;99.90;;;;;;5033214;28;20030;-75
2024/03/18 04:28:33;;;;;;;17.33;11.03;;;13.20;99.90;;;;;;5032331;28;20037;-76
2024/03/18 04:31:00;;;;;;;15.27;11.13;;;13.20;99.90;;;;;;5032598;28;20614;-76
2024/03/18 04:33:26;;;;;;;18.52;11.30;;;13.10;99.90;;;;;;5033448;28;20057;-75
2024/03/18 04:35:52;;;;;;;16.15;11.43;;;13.10;99.90;;;;;;5032748;28;20053;-73
2024/03/18 04:38:18;;;;;;;18.70;11.73;;;13.20;99.90;;;;;;5033087;28;20240;-78
2024/03/18 04:40:44;;;;;;;14.88;10.77;;;13.20;99.90;;;;;;5032918;28;20458;-77
2024/03/18 04:43:09;;;;;;;18.00;11.75;;;13.20;99.90;;;;;;5032258;28;20071;-75
2024/03/18 04:45:35;;;;;;;18.63;12.20;;;13.20;99.90;;;;;;5032541;28;20683;-74
2024/03/18 04:48:02;;;;;;;19.30;13.25;;;13.20;99.90;;;;;;5032246;28;20351;-73
2024/03/18 04:50:28;;;;;;;20.27;13.63;;;13.20;99.90;;;;;;5032600;28;20033;-74
2024/03/18 04:52:55;;;;;;;27.52;15.10;;;13.20;99.90;;;;;;5032383;28;20025;-77
2024/03/18 04:55:24;;;;;;;18.73;13.68;;;13.30;99.90;;;;;;5032708;28;20474;-73
2024/03/18 04:57:55;;;;;;;24.75;15.43;;;13.20;99.90;;;;;;5031415;28;20044;-75
2024/03/18 05:00:26;;;;;;;32.83;16.88;;;13.20;99.90;;;;;;5032680;28;20021;-79
2024/03/18 05:02:53;;;;;;;33.95;16.55;;;13.30;99.90;;;;;;5031100;28;20029;-74
2024/03/18 05:05:19;;;;;;;26.65;16.65;;;13.20;99.90;;;;;;5041298;28;20036;-74
2024/03/18 05:07:45;;;;;;;35.67;18.30;;;13.20;99.90;;;;;;5032365;28;20478;-76
2024/03/18 05:10:12;;;;;;;35.10;18.20;;;13.20;99.90;;;;;;5032388;28;20033;-74
2024/03/18 05:12:39;;;;;;;41.92;20.58;;;13.20;99.90;;;;;;5031709;28;20029;-74
2024/03/18 05:15:07;;;;;;;32.25;18.48;;;13.20;99.90;;;;;;5032283;28;20029;-75
2024/03/18 05:17:34;;;;;;;37.45;20.50;;;13.30;99.90;;;;;;5032270;28;20120;-73
2024/03/18 05:19:59;;;;;;;40.38;21.67;;;13.30;99.90;;;;;;5031810;28;20029;-73
2024/03/18 05:22:26;;;;;;;36.15;20.30;;;13.30;99.90;;;;;;5032327;28;20025;-73
2024/03/18 05:24:51;;;;;;;46.78;23.52;;;13.30;99.90;;;;;;5031017;28;20055;-74
2024/03/18 05:27:19;;;;;;;42.67;21.48;;;13.30;99.90;;;;;;5032028;28;20480;-73
2024/03/18 05:29:46;;;;;;;43.10;24.23;;;13.30;99.90;;;;;;5031468;28;20120;-74
2024/03/18 05:32:14;;;;;;;59.22;28.17;;;13.30;99.90;;;;;;5032094;28;20038;-74
2024/03/18 05:34:42;;;;;;;49.80;25.27;;;13.30;99.90;;;;;;5032003;28;20057;-75
2024/03/18 05:37:09;;;;;;;52.03;27.33;;;13.30;99.90;;;;;;5030435;28;20386;-73
2024/03/18 05:39:38;;;;;;;61.20;28.73;;;13.30;99.90;;;;;;5032241;28;20095;-74
2024/03/18 05:42:04;;;;;;;60.90;28.65;;;13.40;99.90;;;;;;5032081;28;20029;-75
2024/03/18 05:44:30;;;;;;;59.05;26.85;;;13.30;99.90;;;;;;5031719;28;20022;-75
2024/03/18 05:46:56;;;;;;;50.70;26.88;;;13.40;99.90;;;;;;5031204;28;20060;-74
2024/03/18 05:49:22;;;;;;;56.55;27.90;;;13.30;99.90;;;;;;5031271;28;20041;-76
2024/03/18 05:51:48;;;;;;;53.78;28.30;;;13.30;99.90;;;;;;5030860;28;20040;-74
2024/03/18 05:54:17;;;;;;;52.33;28.48;;;13.30;99.90;;;;;;5031850;28;20843;-74
2024/03/18 05:56:43;;;;;;;51.88;27.40;;;13.30;99.90;;;;;;5031841;28;20044;-76
2024/03/18 05:59:12;;;;;;;55.92;28.35;;;13.30;99.90;;;;;;5031697;28;20022;-74
2024/03/18 06:01:39;;;;;;;56.22;28.67;;;13.30;99.90;;;;;;5030664;28;20029;-75
2024/03/18 06:04:05;;;;;;;55.80;28.05;;;13.30;99.90;;;;;;5029069;28;20116;-75
2024/03/18 06:06:31;;;;;;;61.90;29.40;;;13.30;99.90;;;;;;5028449;28;20393;-75
2024/03/18 06:08:57;;;;;;;56.83;28.10;;;13.20;99.90;;;;;;5031159;28;20026;-74
2024/03/18 06:11:23;;;;;;;46.03;25.42;;;13.30;99.90;;;;;;5030943;28;20022;-73
2024/03/18 06:13:48;;;;;;;55.80;27.42;;;13.30;99.90;;;;;;5030510;28;20037;-72
2024/03/18 06:16:14;;;;;;;57.15;28.08;;;13.30;99.90;;;;;;5030408;28;20025;-74
2024/03/18 06:18:42;;;;;;;47.00;25.45;;;13.30;99.90;;;;;;5038965;28;20029;-77
2024/03/18 06:21:16;;;;;;;52.95;26.95;;;13.30;99.90;;;;;;5031200;28;20018;-74
2024/03/18 06:23:54;;;;;;;60.25;28.33;;;13.30;99.90;;;;;;5031003;28;20029;-75
2024/03/18 06:26:21;;;;;;;51.15;26.48;;;13.40;99.90;;;;;;5028307;28;20022;-77
2024/03/18 06:28:47;;;;;;;56.05;27.55;;;13.30;99.90;;;;;;5030938;28;20073;-74
2024/03/18 06:31:13;;;;;;;50.88;26.10;;;13.30;99.90;;;;;;5031273;28;20540;-71
2024/03/18 06:33:39;;;;;;;50.60;26.55;;;13.30;99.90;;;;;;5031105;28;20059;-72
2024/03/18 06:36:11;;;;;;;50.72;27.10;;;13.20;99.90;;;;;;5030428;28;20096;-75
2024/03/18 06:38:38;;;;;;;60.58;26.60;;;13.30;99.90;;;;;;5031291;28;20052;-71
2024/03/18 06:41:05;;;;;;;56.38;26.70;;;13.30;99.90;;;;;;5030467;28;20083;-72
2024/03/18 06:43:31;;;;;;;52.67;26.20;;;13.30;99.90;;;;;;5031230;28;20100;-71
2024/03/18 06:45:57;;;;;;;49.40;26.65;;;13.30;99.90;;;;;;5031053;28;20021;-72
2024/03/18 06:48:23;;;;;;;46.15;24.90;;;13.30;99.90;;;;;;5036931;28;20147;-73
2024/03/18 06:50:49;;;;;;;53.17;27.23;;;13.40;99.90;;;;;;5031230;28;20013;-77
2024/03/18 06:53:15;;;;;;;58.50;27.02;;;13.40;99.90;;;;;;5029132;28;20057;-71
2024/03/18 06:55:44;;;;;;;51.50;26.48;;;13.40;99.90;;;;;;5030697;28;20038;-72
2024/03/18 06:58:10;;;;;;;58.30;29.30;;;13.30;99.90;;;;;;5030354;28;20064;-80
2024/03/18 07:00:36;;;;;;;53.38;27.33;;;13.40;99.90;;;;;;5030723;28;20039;-74
2024/03/18 07:03:03;;;;;;;56.97;26.98;;;13.40;99.90;;;;;;5030947;28;20069;-72
2024/03/18 07:05:28;;;;;;;49.33;26.23;;;13.40;99.90;;;;;;5030748;28;20493;-75
2024/03/18 07:07:54;;;;;;;49.58;25.67;;;13.40;99.90;;;;;;5030299;28;20033;-73
2024/03/18 07:10:21;;;;;;;52.85;26.92;;;13.50;99.90;;;;;;5024657;28;20064;-73
2024/03/18 07:12:47;;;;;;;53.53;25.98;;;13.50;99.90;;;;;;5031021;28;20096;-77
2024/03/18 07:15:16;;;;;;;47.28;26.55;;;13.50;99.90;;;;;;5028748;28;20104;-75
2024/03/18 07:17:43;;;;;;;51.05;25.25;;;13.50;99.90;;;;;;5027099;28;20040;-78
2024/03/18 07:20:10;;;;;;;56.53;26.85;;;13.50;99.90;;;;;;5031465;28;20021;-74
2024/03/18 07:22:38;;;;;;;48.72;25.83;;;13.50;99.90;;;;;;5030712;28;20029;-77
2024/03/18 07:25:06;;;;;;;53.85;25.80;;;13.60;99.90;;;;;;5034133;28;20462;-75
2024/03/18 07:27:31;;;;;;;48.00;25.85;;;13.60;99.90;;;;;;5034034;28;20096;-76
2024/03/18 07:29:58;;;;;;;56.65;27.63;;;13.60;99.90;;;;;;5030748;28;20124;-74
2024/03/18 07:32:27;;;;;;;49.03;26.20;;;13.70;99.90;;;;;;5028963;28;20029;-72
2024/03/18 07:34:53;;;;;;;52.65;25.70;;;13.80;99.90;;;;;;5033413;28;20025;-77
2024/03/18 07:37:19;;;;;;;45.08;24.27;;;13.70;99.90;;;;;;5034007;28;20033;-75
2024/03/18 07:39:46;;;;;;;43.83;25.70;;;13.70;99.90;;;;;;5032702;28;20661;-78
2024/03/18 07:42:12;;;;;;;39.05;23.50;;;13.70;99.90;;;;;;5033871;28;20040;-73
2024/03/18 07:44:39;;;;;;;42.25;23.40;;;13.70;99.90;;;;;;5028763;28;20014;-76
2024/03/18 07:47:05;;;;;;;50.28;26.30;;;13.80;99.90;;;;;;5032441;28;20044;-77
2024/03/18 07:49:30;;;;;;;46.92;24.52;;;13.90;99.90;;;;;;5036730;28;20034;-73
2024/03/18 07:51:56;;;;;;;43.63;24.88;;;14.00;99.90;;;;;;5035180;28;20029;-77
2024/03/18 07:54:23;;;;;;;46.53;25.88;;;14.00;99.90;;;;;;5034984;28;20100;-82
2024/03/18 07:56:48;;;;;;;51.47;24.40;;;14.10;99.90;;;;;;5025478;28;20030;-76
2024/03/18 07:59:14;;;;;;;39.72;21.60;;;14.10;99.90;;;;;;5033219;28;20496;-81
2024/03/18 08:01:40;;;;;;;44.65;22.92;;;14.20;99.90;;;;;;5035325;28;20091;-77
2024/03/18 08:04:06;;;;;;;38.80;21.40;;;14.20;99.90;;;;;;5025195;28;20592;-75
2024/03/18 08:06:32;;;;;;;41.88;21.98;;;14.20;99.90;;;;;;5026057;28;20037;-80
2024/03/18 08:08:58;;;;;;;38.55;22.65;;;14.20;99.90;;;;;;5030066;28;20068;-79
2024/03/18 08:11:24;;;;;;;45.58;22.77;;;14.20;99.90;;;;;;5030715;28;20033;-79
2024/03/18 08:13:49;;;;;;;37.70;21.85;;;14.30;99.90;;;;;;5032728;28;20030;-81
2024/03/18 08:16:15;;;;;;;41.08;21.13;;;14.30;99.90;;;;;;5030232;28;20036;-77
2024/03/18 08:18:41;;;;;;;38.40;20.30;;;14.30;99.90;;;;;;5031767;28;20114;-75
2024/03/18 08:21:06;;;;;;;37.53;21.90;;;14.20;99.90;;;;;;5032916;28;20458;-82
2024/03/18 08:23:32;;;;;;;38.10;23.15;;;14.20;99.90;;;;;;5032463;28;20371;-79
2024/03/18 08:25:58;;;;;;;41.03;22.65;;;14.10;99.90;;;;;;5037065;28;20033;-80
2024/03/18 08:28:24;;;;;;;38.17;21.60;;;14.00;99.90;;;;;;5032667;28;20045;-76
2024/03/18 08:30:49;;;;;;;37.22;22.52;;;14.10;99.90;;;;;;5032615;28;20100;-79
2024/03/18 08:33:15;;;;;;;38.78;21.90;;;14.10;99.90;;;;;;5032562;28;20029;-79
2024/03/18 08:35:41;;;;;;;37.05;22.13;;;14.20;99.90;;;;;;5032888;28;20080;-81
2024/03/18 08:38:07;;;;;;;34.28;19.95;;;14.30;99.90;;;;;;5032404;28;20048;-78
2024/03/18 08:40:33;;;;;;;34.88;18.83;;;14.40;99.90;;;;;;5031499;28;20371;-80
2024/03/18 08:42:58;;;;;;;37.45;21.05;;;14.30;99.90;;;;;;5032159;28;20025;-78
2024/03/18 08:45:24;;;;;;;34.35;21.30;;;14.40;99.90;;;;;;5032502;28;20104;-83
2024/03/18 08:47:50;;;;;;;32.80;21.60;;;14.30;99.90;;;;;;5033529;28;20497;-77
2024/03/18 08:50:15;;;;;;;42.30;22.20;;;14.30;99.90;;;;;;5038936;28;20582;-74
2024/03/18 08:52:41;;;;;;;38.75;22.30;;;14.30;99.90;;;;;;5032195;28;20436;-77
2024/03/18 08:55:07;;;;;;;43.47;22.05;;;14.30;99.90;;;;;;5032392;28;20389;-77
2024/03/18 08:57:34;;;;;;;38.55;20.95;;;14.30;99.90;;;;;;5032052;28;20076;-78
2024/03/18 09:00:00;;;;;;;40.33;22.17;;;14.30;99.90;;;;;;5032548;28;20048;-75
2024/03/18 09:02:27;;;;;;;41.38;22.70;;;14.20;99.90;;;;;;5032177;28;20053;-77
2024/03/18 09:04:53;;;;;;;44.67;22.77;;;14.20;99.90;;;;;;5032456;28;20045;-75
2024/03/18 09:07:18;;;;;;;38.35;22.52;;;14.20;99.90;;;;;;5031675;28;20075;-78
2024/03/18 09:09:44;;;;;;;44.45;22.70;;;14.20;99.90;;;;;;5031115;28;20037;-76
2024/03/18 09:12:10;;;;;;;42.13;23.42;;;14.10;99.90;;;;;;5031826;28;20421;-82
2024/03/18 09:14:35;;;;;;;45.90;24.52;;;14.10;99.90;;;;;;5032279;28;20048;-76
2024/03/18 09:17:02;;;;;;;41.97;25.00;;;14.10;99.90;;;;;;5020845;28;20021;-80
2024/03/18 09:19:39;;;;;;;49.90;26.40;;;14.00;99.90;;;;;;5030538;28;20036;-74
2024/03/18 09:22:06;;;;;;;49.03;26.15;;;14.00;99.90;;;;;;5031705;28;20076;-77
2024/03/18 09:24:32;;;;;;;46.30;26.05;;;14.10;99.90;;;;;;5030740;28;20029;-79
2024/03/18 09:27:01;;;;;;;51.45;26.73;;;14.10;99.90;;;;;;5032268;28;20028;-76
2024/03/18 09:29:28;;;;;;;53.17;27.58;;;14.10;99.90;;;;;;5030244;28;20026;-80
2024/03/18 09:31:54;;;;;;;51.58;27.58;;;14.00;99.90;;;;;;5027435;28;20029;-77
2024/03/18 09:34:20;;;;;;;54.72;29.27;;;14.10;99.90;;;;;;5027555;28;20029;-77
2024/03/18 09:36:46;;;;;;;55.45;29.15;;;14.10;99.90;;;;;;5028963;28;20025;-81
2024/03/18 09:39:12;;;;;;;51.35;29.30;;;14.10;99.90;;;;;;5031282;28;20107;-80
2024/03/18 09:41:40;;;;;;;55.80;31.95;;;14.20;99.90;;;;;;5031998;28;20025;-77
2024/03/18 09:44:13;;;;;;;61.78;30.88;;;14.20;99.90;;;;;;5031696;28;20032;-77
2024/03/18 09:46:38;;;;;;;;;;;14.10;99.90;;;;;;5030967;28;20496;-80
2024/03/18 09:49:14;;;;;;;54.60;30.08;;;14.30;99.90;;;;;;5038285;28;19925;-77
2024/03/18 09:51:41;;;;;;;53.58;28.90;;;14.20;99.90;;;;;;5031282;28;20018;-77
2024/03/18 09:54:14;;;;;;;53.72;27.65;;;14.40;99.90;;;;;;5025207;28;20800;-79
2024/03/18 09:56:41;;;;;;;54.38;28.35;;;14.40;99.90;;;;;;5031165;28;20474;-79
2024/03/18 09:59:10;;;;;;;46.50;24.92;;;14.50;99.90;;;;;;5030239;28;20021;-78
2024/03/18 10:01:36;;;;;;;40.70;21.77;;;14.60;99.90;;;;;;5031292;28;20104;-77
2024/03/18 10:04:01;;;;;;;41.83;23.80;;;14.60;99.90;;;;;;5030973;28;20494;-82
2024/03/18 10:06:27;;;;;;;40.45;22.83;;;14.60;99.90;;;;;;5029962;28;20024;-82
2024/03/18 10:08:53;;;;;;;45.50;23.30;;;14.70;99.90;;;;;;5029940;28;20033;-82
2024/03/18 10:11:23;;;;;;;45.17;25.48;;;14.80;99.90;;;;;;5031544;28;20025;-80
2024/03/18 10:14:08;;;;;;;39.72;24.38;;;14.80;99.90;;;;;;5033347;28;20036;-81
2024/03/18 10:16:34;;;;;;;42.22;22.90;;;14.80;99.90;;;;;;5032260;28;20143;-83
2024/03/18 10:19:01;;;;;;;43.55;23.75;;;14.90;99.90;;;;;;5030582;28;20045;-83
2024/03/18 10:21:27;;;;;;;39.03;24.38;;;15.00;99.90;;;;;;5031468;28;20033;-78
2024/03/18 10:23:55;;;;;;;46.10;24.10;;;14.90;99.90;;;;;;5031215;28;20025;-82
2024/03/18 10:26:21;;;;;;;45.17;23.02;;;14.90;99.90;;;;;;5031655;28;20014;-77
2024/03/18 10:28:47;;;;;;;39.13;23.70;;;14.90;99.90;;;;;;5030826;28;20033;-81
2024/03/18 10:31:16;;;;;;;40.88;21.17;;;14.90;99.90;;;;;;5031213;28;20498;-79
2024/03/18 10:33:46;;;;;;;40.13;21.85;;;14.90;99.90;;;;;;5028719;28;20055;-78
2024/03/18 10:36:24;;;;;;;43.75;22.02;;;14.90;99.90;;;;;;5031109;28;20493;-80
2024/03/18 10:39:09;;;;;;;39.97;20.95;;;14.70;99.90;;;;;;5029521;28;20021;-78
2024/03/18 10:41:39;;;;;;;35.80;20.85;;;14.70;99.90;;;;;;5031225;28;20104;-81
2024/03/18 10:44:20;;;;;;;38.03;20.50;;;14.70;99.90;;;;;;5005191;28;20587;-80
2024/03/18 10:46:47;;;;;;;43.53;21.77;;;14.70;99.90;;;;;;5022552;28;20025;-81
2024/03/18 10:49:20;;;;;;;37.88;22.15;;;14.70;99.90;;;;;;5028615;28;20037;-77
2024/03/18 10:51:48;;;;;;;42.03;22.00;;;14.70;99.90;;;;;;5029465;28;20037;-82
2024/03/18 10:54:15;;;;;;;39.28;22.38;;;14.90;99.90;;;;;;5027499;28;20025;-77
2024/03/18 10:56:44;;;;;;;38.78;21.42;;;14.90;99.90;;;;;;5029289;28;20416;-75
2024/03/18 10:59:16;;;;;;;39.00;21.48;;;15.10;99.90;;;;;;5029127;28;20025;-79
2024/03/18 11:01:42;;;;;;;32.67;19.15;;;15.10;99.90;;;;;;5029210;28;20505;-81
2024/03/18 11:04:27;;;;;;;40.35;20.80;;;15.20;99.90;;;;;;5027758;28;20043;-81
2024/03/18 11:06:55;;;;;;;36.92;20.33;;;15.10;99.90;;;;;;5028429;28;20021;-77
2024/03/18 11:09:22;;;;;;;36.92;20.55;;;15.10;99.90;;;;;;5027872;28;20037;-80
2024/03/18 11:11:49;;;;;;;37.85;20.17;;;15.10;99.90;;;;;;5028498;28;20022;-80
2024/03/18 11:14:28;;;;;;;30.95;18.75;;;15.10;99.90;;;;;;5024859;28;20033;-80
2024/03/18 11:16:55;;;;;;;33.05;18.83;;;15.20;99.90;;;;;;5025955;28;20029;-75
2024/03/18 11:19:26;;;;;;;30.60;17.92;;;15.40;99.90;;;;;;5026968;28;20077;-76
2024/03/18 11:22:06;;;;;;;39.03;20.23;;;15.60;99.90;;;;;;5028360;28;20143;-80
2024/03/18 11:24:32;;;;;;;30.65;17.80;;;15.80;99.90;;;;;;5027387;28;20059;-80
2024/03/18 11:26:59;;;;;;;32.95;18.65;;;15.80;99.90;;;;;;5028252;28;20021;-79
2024/03/18 11:29:38;;;;;;;30.60;16.90;;;15.80;99.90;;;;;;5027979;28;20128;-78
2024/03/18 11:32:08;;;;;;;29.52;19.23;;;16.00;99.90;;;;;;5025973;28;20030;-79
2024/03/18 11:34:36;;;;;;;35.38;18.67;;;16.00;99.90;;;;;;5025940;28;20021;-77
2024/03/18 11:37:04;;;;;;;33.80;17.60;;;16.10;99.90;;;;;;5026869;28;20382;-80
2024/03/18 11:39:30;;;;;;;31.65;17.45;;;16.10;99.90;;;;;;5027794;28;20041;-79
2024/03/18 11:42:00;;;;;;;32.42;16.00;;;16.10;99.90;;;;;;5027957;28;20101;-78
2024/03/18 11:44:26;;;;;;;29.58;16.88;;;16.10;99.90;;;;;;5025698;28;20497;-79
2024/03/18 11:47:05;;;;;;;28.52;15.63;;;16.20;99.90;;;;;;5022169;28;20026;-81
2024/03/18 11:49:33;;;;;;;28.40;15.32;;;16.30;99.90;;;;;;5026526;28;20045;-78
2024/03/18 11:52:02;;;;;;;31.27;16.92;;;16.40;99.90;;;;;;5027948;28;20496;-80
2024/03/18 11:54:28;;;;;;;31.75;16.85;;;16.60;99.90;;;;;;5025492;28;20025;-77
2024/03/18 11:57:04;;;;;;;23.70;14.18;;;16.70;99.90;;;;;;5026487;28;20017;-84
2024/03/18 11:59:30;;;;;;;25.27;13.73;;;16.80;99.90;;;;;;5026382;28;20064;-85
2024/03/18 12:01:58;;;;;;;22.33;12.27;;;17.00;99.90;;;;;;5027526;28;20051;-83
2024/03/18 12:04:24;;;;;;;23.95;11.95;;;17.20;99.90;;;;;;5025943;28;20013;-83
2024/03/18 12:06:49;;;;;;;24.60;13.00;;;17.40;99.90;;;;;;5027770;28;20034;-80
2024/03/18 12:09:17;;;;;;;21.35;12.30;;;17.50;99.90;;;;;;5028042;28;20049;-81
2024/03/18 12:11:43;;;;;;;27.85;13.38;;;17.60;99.90;;;;;;5028060;28;20039;-84
2024/03/18 12:14:10;;;;;;;20.15;12.82;;;17.70;99.90;;;;;;5026406;28;20100;-81
2024/03/18 12:16:37;;;;;;;18.38;12.30;;;17.90;99.90;;;;;;5027276;28;20024;-81
2024/03/18 12:19:08;;;;;;;27.60;14.10;;;17.90;99.90;;;;;;5026518;28;20390;-80
2024/03/18 12:21:39;;;;;;;20.80;13.13;;;17.90;99.90;;;;;;5027470;28;20017;-84
2024/03/18 12:29:38;;;;;;;14.35;6.88;;;17.60;99.90;;;;;;5027537;28;20111;-81
2024/03/18 12:32:04;;;;;;;14.60;6.78;;;17.60;99.90;;;;;;5026601;28;20052;-80
2024/03/18 12:34:32;;;;;;;13.88;7.30;;;17.60;99.90;;;;;;5025140;28;20053;-82
2024/03/18 12:37:00;;;;;;;14.43;7.93;;;17.40;99.90;;;;;;5026492;28;20037;-77
2024/03/18 12:39:29;;;;;;;18.02;10.13;;;17.40;99.90;;;;;;5027284;28;20466;-78